createdAt,value
2022-08-04T00:00:45.866Z,45.71
2022-08-04T00:03:17.053Z,46.37
2022-08-04T00:05:55.186Z,46.12
2022-08-04T00:08:42.845Z,46.70
2022-08-04T00:11:15.243Z,46.58
2022-08-04T00:14:08.119Z,46.59
2022-08-04T00:16:38.561Z,47.50
2022-08-04T00:19:18.507Z,47.18
2022-08-04T00:21:56.692Z,46.91
2022-08-04T00:24:25.438Z,46.91
2022-08-04T00:26:56.144Z,47.76
2022-08-04T00:29:25.591Z,47.74
2022-08-04T00:31:57.383Z,47.96
2022-08-04T00:34:28.622Z,47.02
2022-08-04T00:36:58.362Z,46.64
2022-08-04T00:39:27.249Z,48.34
2022-08-04T00:42:23.970Z,48.49
2022-08-04T00:45:13.756Z,48.55
2022-08-04T00:48:04.469Z,48.61
2022-08-04T00:50:33.795Z,48.87
2022-08-04T00:53:09.824Z,49.99
2022-08-04T00:56:11.273Z,49.67
2022-08-04T00:59:03.906Z,50.21
2022-08-04T01:01:46.436Z,49.58
2022-08-04T01:04:22.442Z,51.60
2022-08-04T01:07:31.481Z,51.05
2022-08-04T01:10:31.458Z,51.47
2022-08-04T01:13:18.214Z,51.23
2022-08-04T01:16:11.354Z,52.12
2022-08-04T01:18:51.581Z,51.91
2022-08-04T01:21:47.909Z,51.45
2022-08-04T01:24:30.894Z,51.96
2022-08-04T01:27:26.998Z,51.02
2022-08-04T01:29:59.891Z,51.07
2022-08-04T01:33:03.905Z,51.70
2022-08-04T01:35:52.985Z,51.14
2022-08-04T01:38:28.827Z,51.43
2022-08-04T01:41:04.154Z,51.89
2022-08-04T01:43:34.140Z,51.80
2022-08-04T01:46:04.246Z,51.42
2022-08-04T01:48:32.332Z,51.55
2022-08-04T01:51:06.709Z,51.55
2022-08-04T01:53:37.524Z,51.88
2022-08-04T01:56:08.219Z,51.98
2022-08-04T01:58:38.026Z,52.20
2022-08-04T02:01:11.349Z,52.23
2022-08-04T02:04:18.812Z,52.48
2022-08-04T02:06:52.885Z,52.80
2022-08-04T02:09:32.202Z,52.97
2022-08-04T02:12:24.885Z,53.32
2022-08-04T02:15:19.631Z,53.44
2022-08-04T02:22:17.782Z,55.14
2022-08-04T02:24:50.171Z,53.99
2022-08-04T02:27:23.705Z,54.70
2022-08-04T02:30:05.211Z,54.99
2022-08-04T02:32:39.771Z,54.67
2022-08-04T02:35:15.112Z,54.45
2022-08-04T02:37:48.299Z,53.99
2022-08-04T02:40:20.921Z,54.74
2022-08-04T02:43:04.420Z,55.13
2022-08-04T02:45:37.823Z,54.75
2022-08-04T02:48:25.230Z,55.71
2022-08-04T02:50:56.388Z,55.48
2022-08-04T02:53:34.807Z,54.72
2022-08-04T02:56:03.909Z,55.16
2022-08-04T02:58:35.410Z,55.60
2022-08-04T03:01:04.510Z,54.75
2022-08-04T03:03:41.455Z,55.33
2022-08-04T03:06:10.939Z,54.85
2022-08-04T03:08:57.038Z,55.28
2022-08-04T03:11:24.956Z,55.33
2022-08-04T03:14:16.924Z,55.24
2022-08-04T03:17:03.805Z,55.25
2022-08-04T03:20:07.719Z,55.34
2022-08-04T03:23:12.009Z,55.24
2022-08-04T03:26:11.890Z,56.87
2022-08-04T03:28:45.857Z,56.43
2022-08-04T03:31:54.192Z,55.87
2022-08-04T03:34:34.833Z,56.92
2022-08-04T03:37:12.371Z,55.84
2022-08-04T03:40:10.708Z,57.31
2022-08-04T03:43:57.298Z,56.79
2022-08-04T03:46:23.417Z,56.05
2022-08-04T03:49:25.692Z,55.82
2022-08-04T03:52:51.739Z,55.89
2022-08-04T03:55:41.032Z,54.99
2022-08-04T03:58:41.513Z,55.66
2022-08-04T04:01:14.181Z,55.50
2022-08-04T04:04:08.810Z,55.69
2022-08-04T04:07:07.735Z,54.41
2022-08-04T04:10:06.433Z,55.11
2022-08-04T04:12:53.862Z,55.36
2022-08-04T04:15:37.999Z,55.12
2022-08-04T04:18:16.578Z,55.04
2022-08-04T04:20:59.230Z,53.97
2022-08-04T04:23:27.225Z,53.58
2022-08-04T04:26:26.862Z,53.93
2022-08-04T04:29:28.878Z,51.83
2022-08-04T04:32:05.101Z,51.62
2022-08-04T04:34:51.076Z,52.35
2022-08-04T04:37:48.761Z,49.46
2022-08-04T04:40:36.097Z,48.34
2022-08-04T04:43:50.340Z,47.74
2022-08-04T04:46:40.203Z,46.79
2022-08-04T04:49:30.778Z,45.91
2022-08-04T04:52:06.827Z,46.34
2022-08-04T04:55:10.631Z,48.47
2022-08-04T04:57:53.386Z,48.85
2022-08-04T05:00:27.089Z,47.19
2022-08-04T05:03:14.972Z,47.15
2022-08-04T05:05:53.643Z,45.22
2022-08-04T05:08:41.119Z,44.82
2022-08-04T05:11:49.106Z,44.15
2022-08-04T05:14:40.031Z,43.78
2022-08-04T05:17:26.654Z,43.14
2022-08-04T05:20:04.597Z,42.59
2022-08-04T05:22:40.233Z,40.98
2022-08-04T05:25:18.619Z,40.83
2022-08-04T05:28:09.953Z,41.37
2022-08-04T05:30:48.652Z,40.41
2022-08-04T05:33:23.151Z,40.96
2022-08-04T05:36:20.868Z,40.21
2022-08-04T05:38:52.068Z,39.84
2022-08-04T05:41:23.085Z,39.91
2022-08-04T05:44:14.074Z,39.54
2022-08-04T05:46:54.240Z,39.55
2022-08-04T05:49:28.194Z,38.59
2022-08-04T05:52:01.128Z,38.73
2022-08-04T05:54:33.666Z,38.08
2022-08-04T05:57:06.658Z,38.22
2022-08-04T05:59:38.028Z,37.59
2022-08-04T06:02:09.118Z,37.33
2022-08-04T06:04:43.578Z,37.39
2022-08-04T06:07:14.301Z,37.07
2022-08-04T06:09:46.112Z,36.71
2022-08-04T06:12:38.960Z,36.34
2022-08-04T06:15:09.288Z,36.64
2022-08-04T06:18:32.894Z,36.23
2022-08-04T06:20:34.666Z,36.95
2022-08-04T06:23:08.203Z,35.70
2022-08-04T06:25:51.263Z,35.96
2022-08-04T06:28:28.041Z,35.72
2022-08-04T06:32:28.333Z,34.96
2022-08-04T06:33:55.423Z,35.41
2022-08-04T06:36:24.889Z,35.80
2022-08-04T06:38:58.328Z,35.31
2022-08-04T06:41:29.577Z,35.26
2022-08-04T06:44:05.001Z,34.71
2022-08-04T06:46:37.752Z,34.45
2022-08-04T06:49:08.384Z,34.57
2022-08-04T06:51:46.705Z,34.93
2022-08-04T06:54:16.686Z,34.62
2022-08-04T06:56:46.186Z,33.99
2022-08-04T06:59:16.297Z,33.61
2022-08-04T07:04:26.192Z,34.27
2022-08-04T07:07:04.967Z,33.68
2022-08-04T07:12:13.700Z,34.00
2022-08-04T07:14:51.494Z,33.77
2022-08-04T07:17:21.583Z,34.10
2022-08-04T07:19:50.516Z,32.77
2022-08-04T07:22:25.470Z,33.51
2022-08-04T07:24:57.317Z,32.49
2022-08-04T07:27:47.861Z,32.56
2022-08-04T07:30:24.639Z,32.48
2022-08-04T07:32:55.155Z,32.47
2022-08-04T07:36:05.399Z,34.42
2022-08-04T07:38:13.936Z,32.65
2022-08-04T07:40:47.035Z,31.56
2022-08-04T07:43:17.959Z,31.13
2022-08-04T07:45:46.468Z,31.24
2022-08-04T07:48:15.768Z,31.67
2022-08-04T07:50:48.997Z,30.65
2022-08-04T07:53:54.600Z,29.92
2022-08-04T07:56:07.884Z,29.93
2022-08-04T07:58:35.979Z,31.00
2022-08-04T08:01:06.228Z,29.82
2022-08-04T08:03:39.076Z,30.05
2022-08-04T08:06:18.164Z,29.47
2022-08-04T08:09:14.569Z,29.33
2022-08-04T08:12:37.643Z,29.59
2022-08-04T08:14:37.309Z,28.86
2022-08-04T08:17:09.282Z,29.20
2022-08-04T08:19:41.087Z,27.73
2022-08-04T08:22:12.317Z,28.09
2022-08-04T08:24:42.419Z,28.31
2022-08-04T08:27:11.072Z,28.55
2022-08-04T08:29:40.043Z,27.92
2022-08-04T08:32:10.803Z,29.72
2022-08-04T08:34:46.725Z,28.35
2022-08-04T08:37:17.958Z,27.72
2022-08-04T08:39:58.437Z,27.41
2022-08-04T08:42:47.961Z,27.76
2022-08-04T08:45:23.645Z,28.15
2022-08-04T08:48:17.062Z,27.66
2022-08-04T08:51:13.878Z,27.75
2022-08-04T08:53:54.195Z,28.77
2022-08-04T08:56:53.157Z,26.74
2022-08-04T08:59:54.916Z,27.05
2022-08-04T09:03:04.234Z,26.52
2022-08-04T09:06:17.402Z,28.14
2022-08-04T09:09:01.707Z,26.33
2022-08-04T09:11:38.633Z,26.09
2022-08-04T09:14:12.070Z,26.71
2022-08-04T09:16:48.098Z,25.15
2022-08-04T09:19:39.098Z,25.24
2022-08-04T09:22:28.544Z,25.09
2022-08-04T09:25:30.988Z,25.44
2022-08-04T09:28:37.205Z,27.18
2022-08-04T09:31:53.020Z,26.53
2022-08-04T09:35:03.722Z,25.03
2022-08-04T09:37:55.976Z,24.27
2022-08-04T09:40:53.212Z,24.97
2022-08-04T09:44:51.398Z,23.60
2022-08-04T09:47:12.181Z,24.37
2022-08-04T09:49:49.177Z,24.19
2022-08-04T09:52:28.169Z,25.41
2022-08-04T09:55:09.985Z,25.13
2022-08-04T09:57:56.529Z,24.50
2022-08-04T10:00:42.006Z,23.89
2022-08-04T10:03:19.999Z,24.37
2022-08-04T10:06:20.326Z,24.14
2022-08-04T10:12:19.084Z,23.37
2022-08-04T10:14:55.128Z,23.07
2022-08-04T10:17:43.525Z,22.39
2022-08-04T10:20:36.581Z,21.51
2022-08-04T10:23:18.339Z,22.34
2022-08-04T10:26:08.469Z,24.41
2022-08-04T10:28:46.001Z,23.49
2022-08-04T10:31:27.199Z,25.06
2022-08-04T10:34:03.986Z,22.48
2022-08-04T10:36:41.807Z,21.88
2022-08-04T10:39:43.233Z,22.73
2022-08-04T10:42:15.555Z,22.38
2022-08-04T10:48:03.309Z,22.22
2022-08-04T10:50:40.902Z,20.31
2022-08-04T10:53:19.982Z,22.56
2022-08-04T10:56:07.231Z,21.50
2022-08-04T10:58:48.027Z,22.65
2022-08-04T11:02:00.794Z,22.68
2022-08-04T11:04:27.193Z,22.24
2022-08-04T11:07:02.935Z,19.96
2022-08-04T11:09:32.970Z,20.77
2022-08-04T11:12:21.991Z,21.46
2022-08-04T11:18:24.313Z,20.89
2022-08-04T11:21:03.205Z,21.25
2022-08-04T11:23:42.207Z,20.52
2022-08-04T11:26:45.682Z,22.19
2022-08-04T11:29:27.094Z,22.34
2022-08-04T11:32:02.060Z,20.25
2022-08-04T11:34:33.410Z,22.09
2022-08-04T11:37:14.371Z,22.18
2022-08-04T11:40:08.370Z,21.56
2022-08-04T11:42:40.114Z,21.44
2022-08-04T11:45:17.464Z,20.95
2022-08-04T11:48:08.075Z,20.50
2022-08-04T11:50:44.467Z,20.79
2022-08-04T11:53:20.186Z,21.30
2022-08-04T11:58:29.248Z,19.17
2022-08-04T12:01:27.770Z,18.98
2022-08-04T12:07:30.414Z,20.54
2022-08-04T12:10:47.263Z,18.71
2022-08-04T12:13:37.043Z,18.74
2022-08-04T12:16:22.240Z,18.62
2022-08-04T12:19:10.023Z,20.75
2022-08-04T12:21:55.976Z,19.92
2022-08-04T12:24:40.015Z,20.40
2022-08-04T12:27:32.165Z,20.77
2022-08-04T12:30:59.535Z,20.30
2022-08-04T12:33:02.017Z,19.31
2022-08-04T12:36:11.148Z,18.61
2022-08-04T12:41:27.023Z,19.82
2022-08-04T12:43:56.117Z,18.47
2022-08-04T12:46:28.204Z,19.39
2022-08-04T12:49:02.783Z,19.36
2022-08-04T12:52:07.118Z,19.04
2022-08-04T12:54:34.405Z,19.11
2022-08-04T12:59:44.815Z,22.20
2022-08-04T13:02:19.166Z,21.48
2022-08-04T13:04:51.378Z,19.47
2022-08-04T13:07:24.497Z,18.01
2022-08-04T13:09:54.659Z,19.25
2022-08-04T13:12:31.975Z,18.20
2022-08-04T13:15:18.030Z,20.59
2022-08-04T13:18:02.099Z,19.87
2022-08-04T13:20:36.884Z,18.86
2022-08-04T13:23:12.896Z,19.05
2022-08-04T13:26:44.450Z,20.28
2022-08-04T13:28:34.730Z,19.74
2022-08-04T13:31:08.333Z,17.89
2022-08-04T13:33:44.103Z,19.08
2022-08-04T13:36:20.277Z,19.50
2022-08-04T13:38:54.640Z,19.01
2022-08-04T13:41:27.654Z,18.75
2022-08-04T13:44:18.507Z,18.98
2022-08-04T13:46:51.337Z,19.31
2022-08-04T13:49:42.736Z,21.10
2022-08-04T13:52:14.056Z,21.34
2022-08-04T13:57:35.195Z,19.25
2022-08-04T14:00:12.101Z,23.36
2022-08-04T14:02:47.119Z,19.85
2022-08-04T14:05:27.455Z,19.24
2022-08-04T14:08:05.158Z,19.64
2022-08-04T14:10:37.151Z,19.82
2022-08-04T14:13:06.682Z,21.13
2022-08-04T14:15:54.888Z,20.26
2022-08-04T14:18:35.131Z,21.35
2022-08-04T14:21:10.074Z,20.31
2022-08-04T14:23:48.041Z,20.05
2022-08-04T14:26:32.391Z,21.84
2022-08-04T14:32:03.181Z,19.91
2022-08-04T14:37:18.174Z,20.54
2022-08-04T14:40:18.171Z,19.95
2022-08-04T14:42:53.973Z,20.69
2022-08-04T14:45:35.504Z,21.48
2022-08-04T14:48:11.846Z,20.35
2022-08-04T14:50:50.720Z,18.96
2022-08-04T14:53:29.475Z,21.02
2022-08-04T14:56:01.235Z,20.07
2022-08-04T14:58:39.288Z,19.83
2022-08-04T15:01:12.922Z,20.13
2022-08-04T15:03:47.986Z,21.14
2022-08-04T15:06:27.402Z,21.25
2022-08-04T15:08:58.821Z,20.70
2022-08-04T15:11:34.048Z,22.00
2022-08-04T15:14:09.066Z,21.54
2022-08-04T15:16:58.665Z,20.34
2022-08-04T15:19:28.311Z,21.89
2022-08-04T15:21:58.121Z,21.51
2022-08-04T15:24:35.076Z,20.96
2022-08-04T15:27:04.201Z,21.90
2022-08-04T15:29:59.696Z,21.17
2022-08-04T15:32:33.187Z,21.20
2022-08-04T15:35:20.881Z,19.69
2022-08-04T15:37:58.357Z,21.70
2022-08-04T15:40:52.147Z,20.33
2022-08-04T15:43:45.229Z,21.45
2022-08-04T15:46:44.079Z,20.05
2022-08-04T15:49:22.449Z,21.42
2022-08-04T15:52:26.289Z,20.59
2022-08-04T15:55:39.115Z,21.29
2022-08-04T15:58:15.170Z,21.08
2022-08-04T16:00:55.094Z,21.44
2022-08-04T16:04:00.366Z,21.02
2022-08-04T16:06:30.779Z,20.77
2022-08-04T16:09:05.520Z,21.17
2022-08-04T16:11:38.130Z,21.40
2022-08-04T16:14:07.713Z,22.32
2022-08-04T16:16:37.158Z,21.87
2022-08-04T16:19:19.069Z,21.77
2022-08-04T16:21:51.407Z,22.29
2022-08-04T16:24:26.576Z,21.93
2022-08-04T16:27:02.114Z,21.74
2022-08-04T16:29:40.540Z,21.57
2022-08-04T16:32:14.446Z,21.78
2022-08-04T16:35:00.340Z,21.84
2022-08-04T16:37:38.551Z,21.39
2022-08-04T16:40:37.732Z,21.71
2022-08-04T16:43:22.153Z,22.09
2022-08-04T16:46:02.131Z,21.86
2022-08-04T16:48:30.747Z,22.12
2022-08-04T16:51:15.678Z,21.58
2022-08-04T16:54:04.999Z,21.86
2022-08-04T16:56:42.105Z,21.72
2022-08-04T16:59:13.174Z,21.34
2022-08-04T17:01:52.540Z,21.96
2022-08-04T17:04:33.667Z,22.40
2022-08-04T17:07:07.026Z,22.36
2022-08-04T17:09:50.450Z,22.31
2022-08-04T17:12:19.038Z,22.59
2022-08-04T17:14:54.392Z,22.47
2022-08-04T17:17:25.658Z,22.51
2022-08-04T17:20:17.914Z,22.23
2022-08-04T17:22:52.114Z,22.36
2022-08-04T17:25:21.195Z,22.27
2022-08-04T17:28:27.523Z,22.78
2022-08-04T17:31:03.419Z,22.87
2022-08-04T17:33:55.032Z,22.75
2022-08-04T17:41:49.640Z,23.13
2022-08-04T17:44:41.380Z,23.33
2022-08-04T17:47:20.492Z,23.31
2022-08-04T17:50:08.158Z,23.67
2022-08-04T17:53:11.263Z,25.57
2022-08-04T17:55:47.250Z,24.85
2022-08-04T17:58:26.853Z,25.06
2022-08-04T18:01:24.674Z,25.61
2022-08-04T18:03:58.240Z,25.98
2022-08-04T18:12:30.286Z,25.97
2022-08-04T18:15:05.812Z,26.24
2022-08-04T18:18:21.097Z,26.45
2022-08-04T18:20:27.840Z,26.69
2022-08-04T18:22:59.364Z,26.96
2022-08-04T18:25:50.352Z,27.24
2022-08-04T18:28:20.857Z,27.64
2022-08-04T18:31:03.515Z,27.55
2022-08-04T18:33:41.614Z,27.87
2022-08-04T18:36:37.091Z,27.96
2022-08-04T18:41:51.618Z,28.68
2022-08-04T18:44:32.167Z,28.80
2022-08-04T18:47:22.381Z,29.48
2022-08-04T18:50:40.215Z,30.46
2022-08-04T18:52:48.394Z,30.83
2022-08-04T18:55:55.338Z,31.69
2022-08-04T19:01:03.189Z,32.15
2022-08-04T19:03:58.737Z,32.36
2022-08-04T19:06:30.753Z,32.71
2022-08-04T19:09:01.410Z,33.02
2022-08-04T19:11:54.704Z,32.92
2022-08-04T19:14:26.245Z,33.79
2022-08-04T19:16:56.480Z,34.21
2022-08-04T19:19:47.962Z,34.32
2022-08-04T19:22:36.150Z,34.52
2022-08-04T19:26:02.300Z,35.22
2022-08-04T19:28:22.199Z,35.45
2022-08-04T19:30:57.284Z,35.73
2022-08-04T19:36:08.558Z,36.53
2022-08-04T19:38:58.159Z,36.75
2022-08-04T19:44:29.935Z,36.55
2022-08-04T19:50:03.305Z,37.05
2022-08-04T19:52:34.186Z,37.25
2022-08-04T19:55:09.779Z,37.09
2022-08-04T19:57:46.181Z,37.56
2022-08-04T20:00:33.781Z,37.87
2022-08-04T20:03:04.053Z,38.05
2022-08-04T20:05:55.227Z,38.57
2022-08-04T20:08:30.537Z,38.82
2022-08-04T20:11:04.202Z,38.89
2022-08-04T20:13:41.066Z,39.30
2022-08-04T20:16:29.282Z,39.58
2022-08-04T20:19:04.622Z,39.53
2022-08-04T20:21:54.822Z,39.82
2022-08-04T20:29:59.358Z,40.63
2022-08-04T20:32:34.247Z,40.21
2022-08-04T20:35:08.386Z,40.78
2022-08-04T20:38:00.374Z,40.46
2022-08-04T20:40:31.142Z,40.33
2022-08-04T20:43:01.280Z,41.15
2022-08-04T20:45:55.721Z,41.14
2022-08-04T20:48:26.176Z,40.95
2022-08-04T20:50:56.095Z,41.42
2022-08-04T20:53:32.532Z,41.56
2022-08-04T20:56:30.572Z,41.88
2022-08-04T20:59:01.685Z,42.12
2022-08-04T21:01:45.410Z,42.63
2022-08-04T21:04:45.280Z,42.23
2022-08-04T21:07:16.743Z,42.52
2022-08-04T21:09:50.674Z,43.05
2022-08-04T21:12:27.186Z,43.19
2022-08-04T21:15:00.243Z,43.24
2022-08-04T21:17:58.320Z,43.34
2022-08-04T21:20:27.790Z,43.28
2022-08-04T21:23:01.944Z,44.12
2022-08-04T21:25:33.095Z,43.59
2022-08-04T21:28:20.481Z,43.52
2022-08-04T21:30:55.066Z,44.32
2022-08-04T21:33:50.490Z,44.13
2022-08-04T21:36:19.924Z,43.88
2022-08-04T21:38:51.500Z,43.99
2022-08-04T21:41:24.859Z,43.95
2022-08-04T21:43:56.059Z,43.97
2022-08-04T21:46:24.438Z,43.85
2022-08-04T21:48:52.198Z,44.02
2022-08-04T21:52:00.729Z,44.33
2022-08-04T21:54:16.896Z,45.19
2022-08-04T21:56:50.703Z,45.54
2022-08-04T21:59:23.816Z,44.83
2022-08-04T22:02:00.834Z,44.87
2022-08-04T22:04:30.825Z,45.50
2022-08-04T22:07:03.090Z,45.94
2022-08-04T22:09:41.298Z,46.00
2022-08-04T22:12:11.743Z,45.95
2022-08-04T22:14:40.359Z,46.48
2022-08-04T22:17:13.806Z,46.62
2022-08-04T22:19:55.436Z,46.39
2022-08-04T22:22:29.223Z,46.58
2022-08-04T22:25:01.918Z,46.82
2022-08-04T22:28:01.210Z,46.84
2022-08-04T22:30:37.022Z,46.75
2022-08-04T22:33:08.002Z,46.84
2022-08-04T22:35:44.037Z,47.09
2022-08-04T22:38:31.743Z,47.08
2022-08-04T22:41:11.185Z,47.16
2022-08-04T22:43:39.933Z,47.50
2022-08-04T22:46:12.214Z,47.19
2022-08-04T22:48:43.601Z,46.65
2022-08-04T22:51:14.143Z,46.45
2022-08-04T22:53:48.897Z,46.84
2022-08-04T22:56:37.232Z,46.24
2022-08-04T22:59:10.882Z,46.39
2022-08-04T23:02:00.120Z,46.15
2022-08-04T23:04:29.177Z,46.37
2022-08-04T23:06:57.525Z,46.55
2022-08-04T23:09:48.828Z,46.84
2022-08-04T23:12:26.229Z,46.33
2022-08-04T23:14:56.628Z,46.78
2022-08-04T23:17:27.763Z,46.00
2022-08-04T23:19:59.218Z,46.92
2022-08-04T23:22:41.965Z,47.17
2022-08-04T23:25:16.112Z,47.98
2022-08-04T23:27:51.639Z,47.57
2022-08-04T23:30:29.767Z,47.82
2022-08-04T23:32:58.835Z,47.70
2022-08-04T23:35:27.587Z,47.78
2022-08-04T23:37:59.879Z,47.19
2022-08-04T23:40:50.096Z,47.73
2022-08-04T23:43:19.229Z,47.46
2022-08-04T23:46:08.272Z,47.31
2022-08-04T23:48:37.051Z,47.87
2022-08-04T23:51:14.028Z,47.11
2022-08-04T23:54:03.469Z,46.91
2022-08-04T23:56:34.729Z,47.54
2022-08-04T23:59:04.519Z,47.87
